sensor_id;sensor_type;location;lat;lon;timestamp;temperature;humidity
22249;DHT22;67538;52.180;5.646;2023-03-14T00:00:50;11.70;99.90
22249;DHT22;67538;52.180;5.646;2023-03-14T00:03:17;11.50;99.90
22249;DHT22;67538;52.180;5.646;2023-03-14T00:05:44;11.50;99.90
22249;DHT22;67538;52.180;5.646;2023-03-14T00:08:11;11.50;99.90
22249;DHT22;67538;52.180;5.646;2023-03-14T00:10:39;11.50;99.90
22249;DHT22;67538;52.180;5.646;2023-03-14T00:13:06;11.50;99.90
22249;DHT22;67538;52.180;5.646;2023-03-14T00:15:33;11.50;99.90
22249;DHT22;67538;52.180;5.646;2023-03-14T00:18:00;11.40;99.90
22249;DHT22;67538;52.180;5.646;2023-03-14T00:20:27;11.40;99.90
22249;DHT22;67538;52.180;5.646;2023-03-14T00:22:53;11.40;99.90
22249;DHT22;67538;52.180;5.646;2023-03-14T00:25:20;11.40;99.90
22249;DHT22;67538;52.180;5.646;2023-03-14T00:27:48;11.30;99.90
22249;DHT22;67538;52.180;5.646;2023-03-14T00:30:16;11.30;99.90
22249;DHT22;67538;52.180;5.646;2023-03-14T00:32:43;11.30;99.90
22249;DHT22;67538;52.180;5.646;2023-03-14T00:35:10;11.30;99.90
22249;DHT22;67538;52.180;5.646;2023-03-14T00:37:37;11.30;99.90
22249;DHT22;67538;52.180;5.646;2023-03-14T00:40:04;11.30;99.90
22249;DHT22;67538;52.180;5.646;2023-03-14T00:42:32;11.30;99.90
22249;DHT22;67538;52.180;5.646;2023-03-14T00:45:00;11.30;99.90
22249;DHT22;67538;52.180;5.646;2023-03-14T00:47:27;11.30;99.90
22249;DHT22;67538;52.180;5.646;2023-03-14T00:49:54;11.30;99.90
22249;DHT22;67538;52.180;5.646;2023-03-14T00:52:22;11.30;99.90
22249;DHT22;67538;52.180;5.646;2023-03-14T00:54:49;11.20;99.90
22249;DHT22;67538;52.180;5.646;2023-03-14T00:57:16;11.10;99.90
22249;DHT22;67538;52.180;5.646;2023-03-14T00:59:42;11.00;99.90
22249;DHT22;67538;52.180;5.646;2023-03-14T01:02:11;11.00;99.90
22249;DHT22;67538;52.180;5.646;2023-03-14T01:04:37;11.00;99.90
22249;DHT22;67538;52.180;5.646;2023-03-14T01:07:04;10.90;99.90
22249;DHT22;67538;52.180;5.646;2023-03-14T01:09:31;10.90;99.90
22249;DHT22;67538;52.180;5.646;2023-03-14T01:11:58;10.90;99.90
22249;DHT22;67538;52.180;5.646;2023-03-14T01:14:25;10.90;99.90
22249;DHT22;67538;52.180;5.646;2023-03-14T01:16:52;10.90;99.90
22249;DHT22;67538;52.180;5.646;2023-03-14T01:19:20;10.90;99.90
22249;DHT22;67538;52.180;5.646;2023-03-14T01:21:47;10.90;99.90
22249;DHT22;67538;52.180;5.646;2023-03-14T01:24:14;10.80;99.90
22249;DHT22;67538;52.180;5.646;2023-03-14T01:26:41;10.60;99.90
22249;DHT22;67538;52.180;5.646;2023-03-14T01:29:08;10.40;99.90
22249;DHT22;67538;52.180;5.646;2023-03-14T01:31:34;10.30;99.90
22249;DHT22;67538;52.180;5.646;2023-03-14T01:34:01;10.20;99.90
22249;DHT22;67538;52.180;5.646;2023-03-14T01:36:30;10.10;99.90
22249;DHT22;67538;52.180;5.646;2023-03-14T01:38:57;10.10;99.90
22249;DHT22;67538;52.180;5.646;2023-03-14T01:41:24;9.90;99.90
22249;DHT22;67538;52.180;5.646;2023-03-14T01:43:51;9.80;99.90
22249;DHT22;67538;52.180;5.646;2023-03-14T01:46:20;9.60;99.90
22249;DHT22;67538;52.180;5.646;2023-03-14T01:48:48;9.50;99.90
22249;DHT22;67538;52.180;5.646;2023-03-14T01:51:17;9.50;99.90
22249;DHT22;67538;52.180;5.646;2023-03-14T01:53:48;9.40;99.90
22249;DHT22;67538;52.180;5.646;2023-03-14T01:56:16;9.30;99.90
22249;DHT22;67538;52.180;5.646;2023-03-14T01:58:44;9.30;99.90
22249;DHT22;67538;52.180;5.646;2023-03-14T02:01:11;9.30;99.90
22249;DHT22;67538;52.180;5.646;2023-03-14T02:03:41;9.20;99.90
22249;DHT22;67538;52.180;5.646;2023-03-14T02:06:11;9.20;99.90
22249;DHT22;67538;52.180;5.646;2023-03-14T02:08:39;9.20;99.90
22249;DHT22;67538;52.180;5.646;2023-03-14T02:11:07;9.10;99.90
22249;DHT22;67538;52.180;5.646;2023-03-14T02:13:34;9.20;99.90
22249;DHT22;67538;52.180;5.646;2023-03-14T02:16:01;9.20;99.90
22249;DHT22;67538;52.180;5.646;2023-03-14T02:18:28;9.10;99.90
22249;DHT22;67538;52.180;5.646;2023-03-14T02:20:56;9.10;99.90
22249;DHT22;67538;52.180;5.646;2023-03-14T02:23:27;9.20;99.90
22249;DHT22;67538;52.180;5.646;2023-03-14T02:25:57;9.20;99.90
22249;DHT22;67538;52.180;5.646;2023-03-14T02:28:29;9.20;99.90
22249;DHT22;67538;52.180;5.646;2023-03-14T02:30:55;9.20;99.90
22249;DHT22;67538;52.180;5.646;2023-03-14T02:33:22;9.20;99.90
22249;DHT22;67538;52.180;5.646;2023-03-14T02:35:50;9.20;99.90
22249;DHT22;67538;52.180;5.646;2023-03-14T02:38:20;9.20;99.90
22249;DHT22;67538;52.180;5.646;2023-03-14T02:40:49;9.20;99.90
22249;DHT22;67538;52.180;5.646;2023-03-14T02:43:16;9.30;99.90
22249;DHT22;67538;52.180;5.646;2023-03-14T02:45:46;9.20;99.90
22249;DHT22;67538;52.180;5.646;2023-03-14T02:48:14;9.20;99.90
22249;DHT22;67538;52.180;5.646;2023-03-14T02:50:42;9.20;99.90
22249;DHT22;67538;52.180;5.646;2023-03-14T02:53:10;9.20;99.90
22249;DHT22;67538;52.180;5.646;2023-03-14T02:55:38;9.20;99.90
22249;DHT22;67538;52.180;5.646;2023-03-14T02:58:05;9.20;99.90
22249;DHT22;67538;52.180;5.646;2023-03-14T03:00:31;9.10;99.90
22249;DHT22;67538;52.180;5.646;2023-03-14T03:03:00;9.10;99.90
22249;DHT22;67538;52.180;5.646;2023-03-14T03:05:27;9.10;99.90
22249;DHT22;67538;52.180;5.646;2023-03-14T03:07:53;9.10;99.90
22249;DHT22;67538;52.180;5.646;2023-03-14T03:10:22;9.10;99.90
22249;DHT22;67538;52.180;5.646;2023-03-14T03:12:49;9.10;99.90
22249;DHT22;67538;52.180;5.646;2023-03-14T03:15:16;9.10;99.90
22249;DHT22;67538;52.180;5.646;2023-03-14T03:17:43;9.20;99.90
22249;DHT22;67538;52.180;5.646;2023-03-14T03:20:11;9.20;99.90
22249;DHT22;67538;52.180;5.646;2023-03-14T03:22:38;9.20;99.90
22249;DHT22;67538;52.180;5.646;2023-03-14T03:25:05;9.20;99.90
22249;DHT22;67538;52.180;5.646;2023-03-14T03:27:32;9.20;99.90
22249;DHT22;67538;52.180;5.646;2023-03-14T03:29:59;9.20;99.90
22249;DHT22;67538;52.180;5.646;2023-03-14T03:32:26;9.20;99.90
22249;DHT22;67538;52.180;5.646;2023-03-14T03:34:53;9.30;99.90
22249;DHT22;67538;52.180;5.646;2023-03-14T03:37:21;9.30;99.90
22249;DHT22;67538;52.180;5.646;2023-03-14T03:39:49;9.30;99.90
22249;DHT22;67538;52.180;5.646;2023-03-14T03:42:16;9.30;99.90
22249;DHT22;67538;52.180;5.646;2023-03-14T03:44:43;9.30;99.90
22249;DHT22;67538;52.180;5.646;2023-03-14T03:47:10;9.40;99.90
22249;DHT22;67538;52.180;5.646;2023-03-14T03:49:37;9.40;99.90
22249;DHT22;67538;52.180;5.646;2023-03-14T03:52:04;9.40;99.90
22249;DHT22;67538;52.180;5.646;2023-03-14T03:54:32;9.40;99.90
22249;DHT22;67538;52.180;5.646;2023-03-14T03:56:59;9.40;99.90
22249;DHT22;67538;52.180;5.646;2023-03-14T03:59:25;9.40;99.90
22249;DHT22;67538;52.180;5.646;2023-03-14T04:01:52;9.40;99.90
22249;DHT22;67538;52.180;5.646;2023-03-14T04:04:19;9.30;99.90
22249;DHT22;67538;52.180;5.646;2023-03-14T04:06:46;9.20;99.90
22249;DHT22;67538;52.180;5.646;2023-03-14T04:09:13;9.20;99.90
22249;DHT22;67538;52.180;5.646;2023-03-14T04:11:41;9.20;99.90
22249;DHT22;67538;52.180;5.646;2023-03-14T04:14:08;9.20;99.90
22249;DHT22;67538;52.180;5.646;2023-03-14T04:16:35;9.20;99.90
22249;DHT22;67538;52.180;5.646;2023-03-14T04:19:02;9.30;99.90
22249;DHT22;67538;52.180;5.646;2023-03-14T04:21:29;9.30;99.90
22249;DHT22;67538;52.180;5.646;2023-03-14T04:23:56;9.30;99.90
22249;DHT22;67538;52.180;5.646;2023-03-14T04:26:23;9.40;99.90
22249;DHT22;67538;52.180;5.646;2023-03-14T04:28:51;9.40;99.90
22249;DHT22;67538;52.180;5.646;2023-03-14T04:31:18;9.40;99.90
22249;DHT22;67538;52.180;5.646;2023-03-14T04:33:45;9.40;99.90
22249;DHT22;67538;52.180;5.646;2023-03-14T04:36:12;9.40;99.90
22249;DHT22;67538;52.180;5.646;2023-03-14T04:38:40;9.50;99.90
22249;DHT22;67538;52.180;5.646;2023-03-14T04:41:06;9.50;99.90
22249;DHT22;67538;52.180;5.646;2023-03-14T04:43:33;9.50;99.90
22249;DHT22;67538;52.180;5.646;2023-03-14T04:46:01;9.50;99.90
22249;DHT22;67538;52.180;5.646;2023-03-14T04:48:28;9.50;99.90
22249;DHT22;67538;52.180;5.646;2023-03-14T04:50:55;9.60;99.90
22249;DHT22;67538;52.180;5.646;2023-03-14T04:53:22;9.60;99.90
22249;DHT22;67538;52.180;5.646;2023-03-14T04:55:49;9.60;99.90
22249;DHT22;67538;52.180;5.646;2023-03-14T04:58:16;9.60;99.90
22249;DHT22;67538;52.180;5.646;2023-03-14T05:00:43;9.60;99.90
22249;DHT22;67538;52.180;5.646;2023-03-14T05:03:11;9.60;99.90
22249;DHT22;67538;52.180;5.646;2023-03-14T05:05:38;9.60;99.90
22249;DHT22;67538;52.180;5.646;2023-03-14T05:08:05;9.70;99.90
22249;DHT22;67538;52.180;5.646;2023-03-14T05:10:32;9.60;99.90
22249;DHT22;67538;52.180;5.646;2023-03-14T05:12:59;9.60;99.90
22249;DHT22;67538;52.180;5.646;2023-03-14T05:15:26;9.70;99.90
22249;DHT22;67538;52.180;5.646;2023-03-14T05:17:52;9.70;99.90
22249;DHT22;67538;52.180;5.646;2023-03-14T05:20:21;9.70;99.90
22249;DHT22;67538;52.180;5.646;2023-03-14T05:22:48;9.60;99.90
22249;DHT22;67538;52.180;5.646;2023-03-14T05:25:14;9.50;99.90
22249;DHT22;67538;52.180;5.646;2023-03-14T05:27:41;9.50;99.90
22249;DHT22;67538;52.180;5.646;2023-03-14T05:30:09;9.40;99.90
22249;DHT22;67538;52.180;5.646;2023-03-14T05:32:36;9.20;99.90
22249;DHT22;67538;52.180;5.646;2023-03-14T05:35:03;9.20;99.90
22249;DHT22;67538;52.180;5.646;2023-03-14T05:37:31;9.10;99.90
22249;DHT22;67538;52.180;5.646;2023-03-14T05:39:58;9.10;99.90
22249;DHT22;67538;52.180;5.646;2023-03-14T05:42:25;9.00;99.90
22249;DHT22;67538;52.180;5.646;2023-03-14T05:44:51;9.00;99.90
22249;DHT22;67538;52.180;5.646;2023-03-14T05:47:18;9.00;99.90
22249;DHT22;67538;52.180;5.646;2023-03-14T05:49:45;9.00;99.90
22249;DHT22;67538;52.180;5.646;2023-03-14T05:52:12;9.00;99.90
22249;DHT22;67538;52.180;5.646;2023-03-14T05:54:40;9.10;99.90
22249;DHT22;67538;52.180;5.646;2023-03-14T05:57:07;9.00;99.90
22249;DHT22;67538;52.180;5.646;2023-03-14T05:59:33;9.00;99.90
22249;DHT22;67538;52.180;5.646;2023-03-14T06:02:00;9.00;99.90
22249;DHT22;67538;52.180;5.646;2023-03-14T06:04:27;9.00;99.90
22249;DHT22;67538;52.180;5.646;2023-03-14T06:06:54;9.00;99.90
22249;DHT22;67538;52.180;5.646;2023-03-14T06:09:21;9.00;99.90
22249;DHT22;67538;52.180;5.646;2023-03-14T06:11:50;9.00;99.90
22249;DHT22;67538;52.180;5.646;2023-03-14T06:14:17;9.00;99.90
22249;DHT22;67538;52.180;5.646;2023-03-14T06:16:44;9.00;99.90
22249;DHT22;67538;52.180;5.646;2023-03-14T06:19:11;9.00;99.90
22249;DHT22;67538;52.180;5.646;2023-03-14T06:21:38;9.00;99.90
22249;DHT22;67538;52.180;5.646;2023-03-14T06:24:05;9.10;99.90
22249;DHT22;67538;52.180;5.646;2023-03-14T06:26:32;9.10;99.90
22249;DHT22;67538;52.180;5.646;2023-03-14T06:29:00;9.10;99.90
22249;DHT22;67538;52.180;5.646;2023-03-14T06:31:29;9.10;99.90
22249;DHT22;67538;52.180;5.646;2023-03-14T06:33:55;9.10;99.90
22249;DHT22;67538;52.180;5.646;2023-03-14T06:36:22;9.10;99.90
22249;DHT22;67538;52.180;5.646;2023-03-14T06:38:49;9.10;99.90
22249;DHT22;67538;52.180;5.646;2023-03-14T06:41:16;9.10;99.90
22249;DHT22;67538;52.180;5.646;2023-03-14T06:43:43;9.10;99.90
22249;DHT22;67538;52.180;5.646;2023-03-14T06:46:11;9.10;99.90
22249;DHT22;67538;52.180;5.646;2023-03-14T06:48:38;9.10;99.90
22249;DHT22;67538;52.180;5.646;2023-03-14T06:51:05;9.10;99.90
22249;DHT22;67538;52.180;5.646;2023-03-14T06:53:32;9.10;99.90
22249;DHT22;67538;52.180;5.646;2023-03-14T06:55:59;9.10;99.90
22249;DHT22;67538;52.180;5.646;2023-03-14T06:58:25;9.10;99.90
22249;DHT22;67538;52.180;5.646;2023-03-14T07:00:52;9.10;99.90
22249;DHT22;67538;52.180;5.646;2023-03-14T07:03:21;9.00;99.90
22249;DHT22;67538;52.180;5.646;2023-03-14T07:05:47;8.90;99.90
22249;DHT22;67538;52.180;5.646;2023-03-14T07:08:14;8.60;99.90
22249;DHT22;67538;52.180;5.646;2023-03-14T07:10:41;8.40;99.90
22249;DHT22;67538;52.180;5.646;2023-03-14T07:13:08;8.30;99.90
22249;DHT22;67538;52.180;5.646;2023-03-14T07:15:35;8.20;99.90
22249;DHT22;67538;52.180;5.646;2023-03-14T07:18:02;8.20;99.90
22249;DHT22;67538;52.180;5.646;2023-03-14T07:20:30;8.20;99.90
22249;DHT22;67538;52.180;5.646;2023-03-14T07:22:57;8.10;99.90
22249;DHT22;67538;52.180;5.646;2023-03-14T07:25:25;8.10;99.90
22249;DHT22;67538;52.180;5.646;2023-03-14T07:27:52;8.10;99.90
22249;DHT22;67538;52.180;5.646;2023-03-14T07:30:19;8.10;99.90
22249;DHT22;67538;52.180;5.646;2023-03-14T07:32:45;8.00;99.90
22249;DHT22;67538;52.180;5.646;2023-03-14T07:35:12;8.00;99.90
22249;DHT22;67538;52.180;5.646;2023-03-14T07:37:40;7.90;99.90
22249;DHT22;67538;52.180;5.646;2023-03-14T07:40:08;7.90;99.90
22249;DHT22;67538;52.180;5.646;2023-03-14T07:42:36;7.90;99.90
22249;DHT22;67538;52.180;5.646;2023-03-14T07:45:03;7.80;99.90
22249;DHT22;67538;52.180;5.646;2023-03-14T07:47:29;7.70;99.90
22249;DHT22;67538;52.180;5.646;2023-03-14T07:49:56;7.70;99.90
22249;DHT22;67538;52.180;5.646;2023-03-14T07:52:23;7.70;99.90
22249;DHT22;67538;52.180;5.646;2023-03-14T07:54:51;7.70;99.90
22249;DHT22;67538;52.180;5.646;2023-03-14T07:57:18;7.70;99.90
22249;DHT22;67538;52.180;5.646;2023-03-14T07:59:45;7.70;99.90
22249;DHT22;67538;52.180;5.646;2023-03-14T08:02:12;7.70;99.90
22249;DHT22;67538;52.180;5.646;2023-03-14T08:04:39;7.60;99.90
22249;DHT22;67538;52.180;5.646;2023-03-14T08:07:06;7.40;99.90
22249;DHT22;67538;52.180;5.646;2023-03-14T08:09:33;7.10;99.90
22249;DHT22;67538;52.180;5.646;2023-03-14T08:12:01;6.80;99.90
22249;DHT22;67538;52.180;5.646;2023-03-14T08:14:28;6.80;99.90
22249;DHT22;67538;52.180;5.646;2023-03-14T08:16:56;6.70;99.90
22249;DHT22;67538;52.180;5.646;2023-03-14T08:19:23;6.60;99.90
22249;DHT22;67538;52.180;5.646;2023-03-14T08:21:49;6.50;99.90
22249;DHT22;67538;52.180;5.646;2023-03-14T08:24:16;6.50;99.90
22249;DHT22;67538;52.180;5.646;2023-03-14T08:26:43;6.50;99.90
22249;DHT22;67538;52.180;5.646;2023-03-14T08:29:11;6.50;99.90
22249;DHT22;67538;52.180;5.646;2023-03-14T08:31:38;6.50;99.90
22249;DHT22;67538;52.180;5.646;2023-03-14T08:34:05;6.50;99.90
22249;DHT22;67538;52.180;5.646;2023-03-14T08:36:32;6.40;99.90
22249;DHT22;67538;52.180;5.646;2023-03-14T08:38:59;6.30;99.90
22249;DHT22;67538;52.180;5.646;2023-03-14T08:41:26;6.40;99.90
22249;DHT22;67538;52.180;5.646;2023-03-14T08:43:53;6.50;99.90
22249;DHT22;67538;52.180;5.646;2023-03-14T08:46:21;6.60;99.90
22249;DHT22;67538;52.180;5.646;2023-03-14T08:48:48;6.70;99.90
22249;DHT22;67538;52.180;5.646;2023-03-14T08:51:14;6.90;99.90
22249;DHT22;67538;52.180;5.646;2023-03-14T08:53:42;6.80;99.90
22249;DHT22;67538;52.180;5.646;2023-03-14T08:56:09;6.70;99.90
22249;DHT22;67538;52.180;5.646;2023-03-14T08:58:36;6.70;99.90
22249;DHT22;67538;52.180;5.646;2023-03-14T09:01:03;6.70;99.90
22249;DHT22;67538;52.180;5.646;2023-03-14T09:03:31;6.70;99.90
22249;DHT22;67538;52.180;5.646;2023-03-14T09:06:01;6.70;99.90
22249;DHT22;67538;52.180;5.646;2023-03-14T09:08:28;6.70;99.90
22249;DHT22;67538;52.180;5.646;2023-03-14T09:10:55;6.80;99.90
22249;DHT22;67538;52.180;5.646;2023-03-14T09:13:22;6.90;99.90
22249;DHT22;67538;52.180;5.646;2023-03-14T09:15:50;6.90;99.90
22249;DHT22;67538;52.180;5.646;2023-03-14T09:18:17;7.10;99.90
22249;DHT22;67538;52.180;5.646;2023-03-14T09:20:45;7.20;99.90
22249;DHT22;67538;52.180;5.646;2023-03-14T09:23:12;7.30;99.90
22249;DHT22;67538;52.180;5.646;2023-03-14T09:25:38;7.30;99.90
22249;DHT22;67538;52.180;5.646;2023-03-14T09:28:05;7.10;99.90
22249;DHT22;67538;52.180;5.646;2023-03-14T09:30:32;7.00;99.90
22249;DHT22;67538;52.180;5.646;2023-03-14T09:32:59;6.90;99.90
22249;DHT22;67538;52.180;5.646;2023-03-14T09:35:26;7.00;99.90
22249;DHT22;67538;52.180;5.646;2023-03-14T09:37:54;7.00;99.90
22249;DHT22;67538;52.180;5.646;2023-03-14T09:40:21;7.00;99.90
22249;DHT22;67538;52.180;5.646;2023-03-14T09:42:50;7.10;99.90
22249;DHT22;67538;52.180;5.646;2023-03-14T09:45:19;7.20;99.90
22249;DHT22;67538;52.180;5.646;2023-03-14T09:47:48;7.20;99.90
22249;DHT22;67538;52.180;5.646;2023-03-14T09:50:15;7.20;99.90
22249;DHT22;67538;52.180;5.646;2023-03-14T09:52:43;7.20;99.90
22249;DHT22;67538;52.180;5.646;2023-03-14T09:55:13;7.20;99.90
22249;DHT22;67538;52.180;5.646;2023-03-14T09:57:41;7.10;99.90
22249;DHT22;67538;52.180;5.646;2023-03-14T10:00:12;7.10;99.90
22249;DHT22;67538;52.180;5.646;2023-03-14T10:02:41;7.10;99.90
22249;DHT22;67538;52.180;5.646;2023-03-14T10:05:13;7.10;99.90
22249;DHT22;67538;52.180;5.646;2023-03-14T10:07:41;7.10;99.90
22249;DHT22;67538;52.180;5.646;2023-03-14T10:10:09;7.00;99.90
22249;DHT22;67538;52.180;5.646;2023-03-14T10:12:38;6.90;99.90
22249;DHT22;67538;52.180;5.646;2023-03-14T10:15:07;7.00;99.90
22249;DHT22;67538;52.180;5.646;2023-03-14T10:17:38;7.20;99.90
22249;DHT22;67538;52.180;5.646;2023-03-14T10:20:06;7.30;99.90
22249;DHT22;67538;52.180;5.646;2023-03-14T10:22:36;7.30;99.90
22249;DHT22;67538;52.180;5.646;2023-03-14T10:25:03;7.20;99.90
22249;DHT22;67538;52.180;5.646;2023-03-14T10:27:31;7.20;99.90
22249;DHT22;67538;52.180;5.646;2023-03-14T10:30:00;7.00;99.90
22249;DHT22;67538;52.180;5.646;2023-03-14T10:32:28;6.70;99.90
22249;DHT22;67538;52.180;5.646;2023-03-14T10:37:47;6.70;99.90
22249;DHT22;67538;52.180;5.646;2023-03-14T10:40:15;7.00;99.90
22249;DHT22;67538;52.180;5.646;2023-03-14T10:42:43;7.20;99.90
22249;DHT22;67538;52.180;5.646;2023-03-14T10:45:25;7.50;99.90
22249;DHT22;67538;52.180;5.646;2023-03-14T10:47:53;7.70;99.90
22249;DHT22;67538;52.180;5.646;2023-03-14T10:50:24;8.00;99.90
22249;DHT22;67538;52.180;5.646;2023-03-14T10:52:51;8.20;99.90
22249;DHT22;67538;52.180;5.646;2023-03-14T10:55:18;8.00;99.90
22249;DHT22;67538;52.180;5.646;2023-03-14T10:57:45;7.70;99.90
22249;DHT22;67538;52.180;5.646;2023-03-14T11:00:15;7.40;99.90
22249;DHT22;67538;52.180;5.646;2023-03-14T11:02:49;7.40;99.90
22249;DHT22;67538;52.180;5.646;2023-03-14T11:05:21;7.50;99.90
22249;DHT22;67538;52.180;5.646;2023-03-14T11:07:49;7.40;99.90
22249;DHT22;67538;52.180;5.646;2023-03-14T11:10:19;7.30;99.90
22249;DHT22;67538;52.180;5.646;2023-03-14T11:12:52;7.30;99.90
22249;DHT22;67538;52.180;5.646;2023-03-14T11:15:22;7.20;99.90
22249;DHT22;67538;52.180;5.646;2023-03-14T11:17:57;7.10;99.90
22249;DHT22;67538;52.180;5.646;2023-03-14T11:20:29;7.10;99.90
22249;DHT22;67538;52.180;5.646;2023-03-14T11:22:59;7.10;99.90
22249;DHT22;67538;52.180;5.646;2023-03-14T11:25:30;7.20;99.90
22249;DHT22;67538;52.180;5.646;2023-03-14T11:28:01;7.70;99.90
22249;DHT22;67538;52.180;5.646;2023-03-14T11:30:32;8.40;99.90
22249;DHT22;67538;52.180;5.646;2023-03-14T11:33:03;8.80;99.90
22249;DHT22;67538;52.180;5.646;2023-03-14T11:35:33;9.00;99.90
22249;DHT22;67538;52.180;5.646;2023-03-14T11:38:03;8.70;99.90
22249;DHT22;67538;52.180;5.646;2023-03-14T11:40:31;8.70;99.90
22249;DHT22;67538;52.180;5.646;2023-03-14T11:43:00;8.70;99.90
22249;DHT22;67538;52.180;5.646;2023-03-14T11:45:30;8.50;99.90
22249;DHT22;67538;52.180;5.646;2023-03-14T11:48:10;8.40;99.90
22249;DHT22;67538;52.180;5.646;2023-03-14T11:50:39;8.30;99.90
22249;DHT22;67538;52.180;5.646;2023-03-14T11:53:08;8.20;99.90
22249;DHT22;67538;52.180;5.646;2023-03-14T11:55:36;8.00;99.90
22249;DHT22;67538;52.180;5.646;2023-03-14T11:58:15;8.10;99.90
22249;DHT22;67538;52.180;5.646;2023-03-14T12:00:44;8.30;99.90
22249;DHT22;67538;52.180;5.646;2023-03-14T12:03:14;8.60;99.90
22249;DHT22;67538;52.180;5.646;2023-03-14T12:05:48;8.80;99.90
22249;DHT22;67538;52.180;5.646;2023-03-14T12:11:13;8.90;99.90
22249;DHT22;67538;52.180;5.646;2023-03-14T12:13:40;8.70;99.90
22249;DHT22;67538;52.180;5.646;2023-03-14T12:16:19;8.80;99.90
22249;DHT22;67538;52.180;5.646;2023-03-14T12:18:51;8.80;99.90
22249;DHT22;67538;52.180;5.646;2023-03-14T12:21:18;8.80;99.90
22249;DHT22;67538;52.180;5.646;2023-03-14T12:23:48;8.80;99.90
22249;DHT22;67538;52.180;5.646;2023-03-14T12:26:16;8.80;99.90
22249;DHT22;67538;52.180;5.646;2023-03-14T12:28:44;8.80;99.90
22249;DHT22;67538;52.180;5.646;2023-03-14T12:34:02;8.60;99.90
22249;DHT22;67538;52.180;5.646;2023-03-14T12:39:24;8.40;99.90
22249;DHT22;67538;52.180;5.646;2023-03-14T12:42:01;8.30;99.90
22249;DHT22;67538;52.180;5.646;2023-03-14T12:44:43;8.40;99.90
22249;DHT22;67538;52.180;5.646;2023-03-14T12:50:12;8.50;99.90
22249;DHT22;67538;52.180;5.646;2023-03-14T12:52:41;8.50;99.90
22249;DHT22;67538;52.180;5.646;2023-03-14T12:55:12;8.50;99.90
22249;DHT22;67538;52.180;5.646;2023-03-14T12:57:44;8.80;99.90
22249;DHT22;67538;52.180;5.646;2023-03-14T13:00:16;9.00;99.90
22249;DHT22;67538;52.180;5.646;2023-03-14T13:02:44;9.00;99.90
22249;DHT22;67538;52.180;5.646;2023-03-14T13:05:13;9.00;99.90
22249;DHT22;67538;52.180;5.646;2023-03-14T13:10:28;8.90;99.90
22249;DHT22;67538;52.180;5.646;2023-03-14T13:12:56;8.80;99.90
22249;DHT22;67538;52.180;5.646;2023-03-14T13:15:24;8.80;99.90
22249;DHT22;67538;52.180;5.646;2023-03-14T13:17:53;8.80;99.90
22249;DHT22;67538;52.180;5.646;2023-03-14T13:20:24;8.70;99.90
22249;DHT22;67538;52.180;5.646;2023-03-14T13:22:53;8.60;99.90
22249;DHT22;67538;52.180;5.646;2023-03-14T13:25:20;8.60;99.90
22249;DHT22;67538;52.180;5.646;2023-03-14T13:27:48;8.70;99.90
22249;DHT22;67538;52.180;5.646;2023-03-14T13:30:16;8.70;99.90
22249;DHT22;67538;52.180;5.646;2023-03-14T13:32:43;8.60;99.90
22249;DHT22;67538;52.180;5.646;2023-03-14T13:35:16;8.70;99.90
22249;DHT22;67538;52.180;5.646;2023-03-14T13:37:44;8.70;99.90
22249;DHT22;67538;52.180;5.646;2023-03-14T13:40:23;8.50;99.90
22249;DHT22;67538;52.180;5.646;2023-03-14T13:42:58;8.40;99.90
22249;DHT22;67538;52.180;5.646;2023-03-14T13:45:25;8.60;99.90
22249;DHT22;67538;52.180;5.646;2023-03-14T13:47:52;8.80;99.90
22249;DHT22;67538;52.180;5.646;2023-03-14T13:50:19;9.10;99.90
22249;DHT22;67538;52.180;5.646;2023-03-14T13:52:47;9.00;99.90
22249;DHT22;67538;52.180;5.646;2023-03-14T13:55:20;8.80;99.90
22249;DHT22;67538;52.180;5.646;2023-03-14T13:57:48;8.80;99.90
22249;DHT22;67538;52.180;5.646;2023-03-14T14:00:17;8.90;99.90
22249;DHT22;67538;52.180;5.646;2023-03-14T14:02:45;9.00;99.90
22249;DHT22;67538;52.180;5.646;2023-03-14T14:05:12;9.10;99.90
22249;DHT22;67538;52.180;5.646;2023-03-14T14:07:39;8.90;99.90
22249;DHT22;67538;52.180;5.646;2023-03-14T14:10:09;8.80;99.90
22249;DHT22;67538;52.180;5.646;2023-03-14T14:12:36;8.80;99.90
22249;DHT22;67538;52.180;5.646;2023-03-14T14:15:05;8.90;99.90
22249;DHT22;67538;52.180;5.646;2023-03-14T14:17:35;9.00;99.90
22249;DHT22;67538;52.180;5.646;2023-03-14T14:20:03;9.00;99.90
22249;DHT22;67538;52.180;5.646;2023-03-14T14:22:31;9.00;99.90
22249;DHT22;67538;52.180;5.646;2023-03-14T14:24:58;8.90;99.90
22249;DHT22;67538;52.180;5.646;2023-03-14T14:27:29;8.90;99.90
22249;DHT22;67538;52.180;5.646;2023-03-14T14:30:00;8.80;99.90
22249;DHT22;67538;52.180;5.646;2023-03-14T14:32:34;8.60;99.90
22249;DHT22;67538;52.180;5.646;2023-03-14T14:35:01;8.30;99.90
22249;DHT22;67538;52.180;5.646;2023-03-14T14:37:29;8.30;99.90
22249;DHT22;67538;52.180;5.646;2023-03-14T14:39:58;8.10;99.90
22249;DHT22;67538;52.180;5.646;2023-03-14T14:42:26;7.90;99.90
22249;DHT22;67538;52.180;5.646;2023-03-14T14:44:55;7.70;99.90
22249;DHT22;67538;52.180;5.646;2023-03-14T14:47:22;7.50;99.90
22249;DHT22;67538;52.180;5.646;2023-03-14T14:49:50;7.30;99.90
22249;DHT22;67538;52.180;5.646;2023-03-14T14:52:18;7.20;99.90
22249;DHT22;67538;52.180;5.646;2023-03-14T14:54:45;7.10;99.90
22249;DHT22;67538;52.180;5.646;2023-03-14T14:57:16;7.10;99.90
22249;DHT22;67538;52.180;5.646;2023-03-14T14:59:43;7.10;99.90
22249;DHT22;67538;52.180;5.646;2023-03-14T15:02:23;7.10;99.90
22249;DHT22;67538;52.180;5.646;2023-03-14T15:04:51;7.10;99.90
22249;DHT22;67538;52.180;5.646;2023-03-14T15:07:18;7.00;99.90
22249;DHT22;67538;52.180;5.646;2023-03-14T15:09:44;7.00;99.90
22249;DHT22;67538;52.180;5.646;2023-03-14T15:12:11;7.00;99.90
22249;DHT22;67538;52.180;5.646;2023-03-14T15:14:38;7.00;99.90
22249;DHT22;67538;52.180;5.646;2023-03-14T15:17:05;7.00;99.90
22249;DHT22;67538;52.180;5.646;2023-03-14T15:19:33;7.00;99.90
22249;DHT22;67538;52.180;5.646;2023-03-14T15:22:00;6.90;99.90
22249;DHT22;67538;52.180;5.646;2023-03-14T15:24:27;6.90;99.90
22249;DHT22;67538;52.180;5.646;2023-03-14T15:26:54;6.90;99.90
22249;DHT22;67538;52.180;5.646;2023-03-14T15:29:20;7.00;99.90
22249;DHT22;67538;52.180;5.646;2023-03-14T15:31:47;7.00;99.90
22249;DHT22;67538;52.180;5.646;2023-03-14T15:34:14;7.10;99.90
22249;DHT22;67538;52.180;5.646;2023-03-14T15:36:43;7.10;99.90
22249;DHT22;67538;52.180;5.646;2023-03-14T15:39:12;7.10;99.90
22249;DHT22;67538;52.180;5.646;2023-03-14T15:41:38;7.10;99.90
22249;DHT22;67538;52.180;5.646;2023-03-14T15:44:05;7.10;99.90
22249;DHT22;67538;52.180;5.646;2023-03-14T15:46:32;7.10;99.90
22249;DHT22;67538;52.180;5.646;2023-03-14T15:48:59;7.00;99.90
22249;DHT22;67538;52.180;5.646;2023-03-14T15:51:26;7.00;99.90
22249;DHT22;67538;52.180;5.646;2023-03-14T15:53:54;7.00;99.90
22249;DHT22;67538;52.180;5.646;2023-03-14T15:56:21;6.90;99.90
22249;DHT22;67538;52.180;5.646;2023-03-14T15:58:50;6.80;99.90
22249;DHT22;67538;52.180;5.646;2023-03-14T16:01:17;6.70;99.90
22249;DHT22;67538;52.180;5.646;2023-03-14T16:03:44;6.80;99.90
22249;DHT22;67538;52.180;5.646;2023-03-14T16:06:11;6.80;99.90